Terminal Aerodrome Forecast
Issued by NWS Dodge City, KS

Home | Current Version | Previous Version | Text Only | Print | Product List | Glossary On
Versions: 1 2 3 4 5 6 7 8 9 10 11 12 13 14 15 16 17 18 19 20 21 22 23 24 25 26 27 28 29 30
000
FTUS43 KDDC 192320
TAFDDC
TAF
KDDC 192320Z 2000/2024 35013KT P6SM SCT150
     FM200400 32007KT P6SM SCT200
      TEMPO 2010/2014 4SM BR SCT015
     FM201500 30014G21KT P6SM SKC=

USA.gov is the U.S. government's official web portal to all federal, state and local government web resources and services.